Rhapsody Of The Seas — C6UA2 — position and weather

sailwx.info

Track history (hours):
 
Tides and Currents Weather Stations Pressure Air Temp Water Temp Dewpoint Dewpoint Depression Visibility Wind Speed Wind Dir Waves Ship Positions

Rhapsody Of The Seas

Last reported at 2019-Jun-16 01:00 UTC. Time now 2019-Jun-16 14:34 UTC.
Position N 43°24' E 014°42'.

Type: Passenger vessel. MMSI: 311805000.

Wind from 350 at 14 knots

Barometer 1016.9 mb
Air temperature 24.0 ° C
Visibility: greater than 5.4 NM
Water temperature 22.0 ° C

Date/timePositionNaut miles runAvg speedWind from/ knotsBaromVisibWave heightAir tempDewpointWater temp
2019-Jun-16 01:00N 43°24' E 014°42'9521.1 350 / 141016.9 5.4 24.0 22.0
2019-Jun-15 20:29N 44°43' E 013°28'919.4
2019-Jun-15 20:00N 44°50' E 013°21'1019.2
2019-Jun-15 19:31N 44°58' E 013°12'1019.3
2019-Jun-15 19:01N 45°04' E 013°02'1019.3
2019-Jun-15 18:30N 45°11' E 012°52'919.0
2019-Jun-15 18:00N 45°17' E 012°42'917.1
2019-Jun-15 17:30N 45°22' E 012°32'611.2
2019-Jun-15 17:00N 45°25' E 012°25'3 5.4
2019-Jun-15 16:30N 45°25' E 012°22'2 4.5
2019-Jun-15 16:01N 45°26' E 012°19'0 0.8
2019-Jun-15 15:29N 45°26' E 012°19'0 0.0
2019-Jun-15 15:00N 45°26' E 012°19'0 0.0
2019-Jun-15 14:29N 45°26' E 012°19'0 0.0
2019-Jun-15 13:59N 45°26' E 012°19'0 0.0
2019-Jun-15 13:30N 45°26' E 012°19'0 0.0
2019-Jun-15 13:00N 45°26' E 012°19'0 0.0
2019-Jun-15 12:29N 45°26' E 012°19'0 0.0
2019-Jun-15 11:59N 45°26' E 012°19'0 0.0
2019-Jun-15 11:29N 45°26' E 012°19'0 0.0
2019-Jun-15 10:59N 45°26' E 012°19'0 0.0
2019-Jun-15 10:29N 45°26' E 012°19'0 0.0
2019-Jun-15 09:58N 45°26' E 012°19'0 0.0
2019-Jun-15 09:30N 45°26' E 012°19'0 0.0
2019-Jun-15 08:58N 45°26' E 012°19'0 0.0
2019-Jun-15 08:28N 45°26' E 012°19'0 0.0
2019-Jun-15 08:00N 45°26' E 012°19'0 0.0
2019-Jun-15 07:30N 45°26' E 012°19'0 0.0
2019-Jun-15 06:59N 45°26' E 012°19'0 0.0
2019-Jun-15 06:28N 45°26' E 012°19'0 0.0
2019-Jun-15 05:58N 45°26' E 012°19'0 0.0
2019-Jun-15 05:29N 45°26' E 012°19'0 0.0
2019-Jun-15 05:00N 45°26' E 012°19'0 0.0
2019-Jun-15 04:28N 45°26' E 012°19'0 0.0
2019-Jun-15 03:59N 45°26' E 012°19'0 0.0
2019-Jun-15 03:28N 45°26' E 012°19'0 0.1
2019-Jun-15 03:01N 45°26' E 012°19'1 2.7
2019-Jun-15 02:31N 45°26' E 012°20'2 4.1
2019-Jun-15 02:00N 45°26' E 012°23'4 8.1
2019-Jun-15 01:31N 45°24' E 012°28'713.8
2019-Jun-15 01:00N 45°20' E 012°37'815.6
2019-Jun-15 00:31N 45°16' E 012°46'815.8
2019-Jun-15 00:00N 45°11' E 012°55'816.0
2019-Jun-14 23:31N 45°06' E 013°04'816.1
2019-Jun-14 23:01N 45°01' E 013°13'816.0
2019-Jun-14 22:31N 44°56' E 013°21'816.1
2019-Jun-14 22:01N 44°49' E 013°27'816.3
2019-Jun-14 21:31N 44°43' E 013°34'816.4
2019-Jun-14 21:01N 44°36' E 013°40'816.0
2019-Jun-14 20:31N 44°29' E 013°47'815.3
2019-Jun-14 20:00N 44°23' E 013°52'815.3
2019-Jun-14 19:31N 44°17' E 013°58'815.9
2019-Jun-14 19:00N 44°10' E 014°05'815.6
2019-Jun-14 18:30N 44°04' E 014°11'815.8
2019-Jun-14 18:00N 43°58' E 014°18'816.8
2019-Jun-14 17:30N 43°51' E 014°26'4616.6
2019-Jun-14 14:43N 43°15' E 015°06'26817.1
2019-Jun-13 23:00N 39°48' E 018°54'24310.6 340 / 161018.9 2.2 23.0 22.0
2019-Jun-13 00:00N 36°30' E 021°54'8416.2 350 / 161016.9 5.4 23.0 22.0
2019-Jun-12 18:49N 36°31' E 023°38'2016.2
2019-Jun-12 17:34N 36°43' E 023°59'116.5
2019-Jun-12 17:31N 36°43' E 023°60'1816.4
2019-Jun-12 16:24N 36°55' E 024°18'916.7
2019-Jun-12 15:53N 36°60' E 024°26'2216.7
2019-Jun-12 14:33N 37°12' E 024°49'116.8
2019-Jun-12 14:30N 37°13' E 024°50'816.9
2019-Jun-12 14:00N 37°17' E 024°59'816.7
2019-Jun-12 13:30N 37°23' E 025°07'816.0
2019-Jun-12 13:00N 37°28' E 025°15'3 5.8
2019-Jun-12 12:26N 37°27' E 025°19'0 0.0
2019-Jun-12 11:59N 37°27' E 025°19'0 0.0
2019-Jun-12 11:29N 37°27' E 025°19'0 0.0
2019-Jun-12 10:59N 37°27' E 025°19'0 0.0
2019-Jun-12 10:29N 37°27' E 025°19'0 0.0
2019-Jun-12 09:56N 37°27' E 025°19'0 0.0
2019-Jun-12 09:29N 37°27' E 025°19'0 0.0
2019-Jun-12 08:59N 37°27' E 025°19'0 0.0
2019-Jun-12 08:29N 37°27' E 025°19'0 0.0
2019-Jun-12 07:59N 37°27' E 025°19'0 0.0
2019-Jun-12 07:29N 37°27' E 025°19'0 0.0
2019-Jun-12 06:59N 37°27' E 025°19'0 0.0
2019-Jun-12 06:29N 37°27' E 025°19'0 0.0
2019-Jun-12 05:56N 37°27' E 025°19'0 0.1
2019-Jun-12 05:29N 37°27' E 025°19'0 0.1
2019-Jun-12 04:59N 37°27' E 025°19'0 0.1
2019-Jun-12 04:26N 37°27' E 025°19'0 0.1
2019-Jun-12 03:59N 37°27' E 025°19'1 1.6
2019-Jun-12 03:30N 37°27' E 025°18'4 8.9
2019-Jun-12 03:00N 37°29' E 025°13'5 9.0
2019-Jun-12 02:30N 37°30' E 025°07'9 9.4
2019-Jun-12 01:30N 37°32' E 024°56'5 9.6
2019-Jun-12 01:00N 37°33' E 024°50'1111.3
2019-Jun-12 00:00N 37°30' E 024°36'38 9.5 330 / 41014.9 5.4 22.0 21.0
2019-Jun-11 19:59N 37°37' E 023°49'510.2
2019-Jun-11 19:30N 37°39' E 023°43'510.4
2019-Jun-11 19:00N 37°44' E 023°40'510.2
2019-Jun-11 18:30N 37°48' E 023°37'5 9.8
2019-Jun-11 18:00N 37°53' E 023°36'4 7.3
2019-Jun-11 17:30N 37°56' E 023°38'0 0.2
2019-Jun-11 16:53N 37°56' E 023°38'0 0.0
2019-Jun-11 16:29N 37°56' E 023°38'0 0.0
2019-Jun-11 15:59N 37°56' E 023°38'0 0.0
2019-Jun-11 15:29N 37°56' E 023°38'0 0.0
2019-Jun-11 14:59N 37°56' E 023°38'0 0.0
2019-Jun-11 14:29N 37°56' E 023°38'0 0.0
2019-Jun-11 13:59N 37°56' E 023°38'0 0.0
2019-Jun-11 13:29N 37°56' E 023°38'0 0.0
2019-Jun-11 12:59N 37°56' E 023°38'0 0.0
2019-Jun-11 12:29N 37°56' E 023°38'0 0.0
2019-Jun-11 11:59N 37°56' E 023°38'0 0.0
2019-Jun-11 11:29N 37°56' E 023°38'0 0.0
2019-Jun-11 10:59N 37°56' E 023°38'0 0.1
2019-Jun-11 08:41N 37°57' E 023°38'1 5.3
2019-Jun-11 08:29N 37°56' E 023°37'4 8.2
2019-Jun-11 07:59N 37°52' E 023°38'1122.5
2019-Jun-11 07:30N 37°43' E 023°44'1122.1
2019-Jun-11 07:00N 37°32' E 023°45'1121.6
2019-Jun-11 06:30N 37°21' E 023°44'11016.9
2019-Jun-11 00:00N 36°30' E 021°42'5317.6 280 / 61013.9 5.4 23.0 22.0
2019-Jun-10 21:00N 37°06' E 020°54'195 9.8 270 / 51013.8 23.6
2019-Jun-10 01:00N 40°06' E 019°18'36015.1 350 / 161016.9 5.4 22.0 21.0
2019-Jun-09 01:12N 44°27' E 013°43'315.4
2019-Jun-09 01:00N 44°30' E 013°41'715.3
2019-Jun-09 00:30N 44°36' E 013°35'815.4
2019-Jun-09 00:00N 44°42' E 013°28'3184.9
2019-Jun-09 00:00N 44°42' E 013°24'713.7 090 / 121024.9 5.4 22.0 21.0
2019-Jun-08 23:30N 44°49' E 013°23'815.2
2019-Jun-08 23:00N 44°55' E 013°17'815.0
2019-Jun-08 22:30N 45°00' E 013°10'815.1
2019-Jun-08 22:00N 45°05' E 013°02'815.2
2019-Jun-08 21:30N 45°10' E 012°53'714.7
2019-Jun-08 21:00N 45°14' E 012°45'714.4
2019-Jun-08 20:30N 45°19' E 012°37'714.2
2019-Jun-08 20:01N 45°23' E 012°29'4 8.6
2019-Jun-08 19:30N 45°26' E 012°24'2 4.6
2019-Jun-08 19:01N 45°26' E 012°21'2 3.8
2019-Jun-08 18:30N 45°26' E 012°18'0 0.5
2019-Jun-08 17:59N 45°26' E 012°19'0 0.0
2019-Jun-08 17:29N 45°26' E 012°19'0 0.0
2019-Jun-08 16:59N 45°26' E 012°19'0 0.0
2019-Jun-08 16:29N 45°26' E 012°19'0 0.0
2019-Jun-08 15:59N 45°26' E 012°19'0 0.0
2019-Jun-08 15:29N 45°26' E 012°19'0 0.0
2019-Jun-08 14:56N 45°26' E 012°19'0 0.0
2019-Jun-08 14:29N 45°26' E 012°19'0 0.0
2019-Jun-08 13:59N 45°26' E 012°19'0 0.0
2019-Jun-08 13:29N 45°26' E 012°19'0 0.0
2019-Jun-08 12:59N 45°26' E 012°19'0 0.0
2019-Jun-08 12:29N 45°26' E 012°19'0 0.0
2019-Jun-08 11:59N 45°26' E 012°19'0 0.0
2019-Jun-08 11:29N 45°26' E 012°19'0 0.0
2019-Jun-08 10:59N 45°26' E 012°19'0 0.0
2019-Jun-08 10:26N 45°26' E 012°19'0 0.0
2019-Jun-08 09:59N 45°26' E 012°19'0 0.0
2019-Jun-08 09:29N 45°26' E 012°19'0 0.0
2019-Jun-08 08:59N 45°26' E 012°19'0 0.0
2019-Jun-08 08:29N 45°26' E 012°19'0 0.0
2019-Jun-08 07:59N 45°26' E 012°19'0 0.0
2019-Jun-08 07:29N 45°26' E 012°19'0 0.0
2019-Jun-08 06:59N 45°26' E 012°19'0 0.0
2019-Jun-08 06:29N 45°26' E 012°19'0 0.0
2019-Jun-08 05:59N 45°26' E 012°19'0 0.0
2019-Jun-08 05:29N 45°26' E 012°19'0 0.2
2019-Jun-08 04:59N 45°26' E 012°19'1 3.1
2019-Jun-08 04:31N 45°26' E 012°21'2 3.9
2019-Jun-08 04:00N 45°26' E 012°23'4 7.9
2019-Jun-08 03:30N 45°24' E 012°28'612.1
2019-Jun-08 03:01N 45°21' E 012°35'612.6
2019-Jun-08 02:30N 45°17' E 012°43'713.1
2019-Jun-08 02:00N 45°14' E 012°50'713.2
2019-Jun-08 01:30N 45°10' E 012°58'713.4
2019-Jun-08 01:01N 45°06' E 013°06'0 5.6
2019-Jun-08 01:00N 45°06' E 013°06'713.7 170 / 161021.9 5.4 20.0 21.0
2019-Jun-08 00:30N 45°01' E 013°13'713.4
2019-Jun-07 23:59N 44°57' E 013°20'613.4
2019-Jun-07 23:30N 44°52' E 013°26'713.7
2019-Jun-07 23:00N 44°46' E 013°31'713.7
2019-Jun-07 22:31N 44°40' E 013°36'713.6
2019-Jun-07 22:00N 44°35' E 013°42'713.6
2019-Jun-07 21:30N 44°29' E 013°47'713.8
2019-Jun-07 21:00N 44°23' E 013°52'713.8
2019-Jun-07 20:30N 44°18' E 013°58'713.8
2019-Jun-07 20:00N 44°12' E 014°03'713.8
2019-Jun-07 19:30N 44°06' E 014°09'713.7
2019-Jun-07 19:00N 44°01' E 014°15'713.6
2019-Jun-07 18:30N 43°55' E 014°21'713.8
2019-Jun-07 17:58N 43°50' E 014°27'28616.8
2019-Jun-07 01:00N 40°12' E 018°36'26311.0 170 / 181021.9 5.4 20.0 21.0
2019-Jun-06 01:00N 36°36' E 021°48'   320 / 91018.9 5.4 19.0 21.0
Track history (hours):
 
Tides and Currents Weather Stations Pressure Air Temp Water Temp Dewpoint Dewpoint Depression Visibility Wind Speed Wind Dir Waves Ship Positions

Rhapsody Of The Seas

Last reported at 2019-Jun-16 01:00 UTC. Time now 2019-Jun-16 14:34 UTC.
Position N 43°24' E 014°42'.

Type: Passenger vessel. MMSI: 311805000.

Wind from 350 at 14 knots

Barometer 1016.9 mb
Air temperature 24.0 ° C
Visibility: greater than 5.4 NM
Water temperature 22.0 ° C

Date/timePositionNaut miles runAvg speedWind from/ knotsBaromVisibWave heightAir tempDewpointWater temp
2019-Jun-16 01:00N 43°24' E 014°42'9521.1 350 / 141016.9 5.4 24.0 22.0
2019-Jun-15 20:29N 44°43' E 013°28'919.4
2019-Jun-15 20:00N 44°50' E 013°21'1019.2
2019-Jun-15 19:31N 44°58' E 013°12'1019.3
2019-Jun-15 19:01N 45°04' E 013°02'1019.3
2019-Jun-15 18:30N 45°11' E 012°52'919.0
2019-Jun-15 18:00N 45°17' E 012°42'917.1
2019-Jun-15 17:30N 45°22' E 012°32'611.2
2019-Jun-15 17:00N 45°25' E 012°25'3 5.4
2019-Jun-15 16:30N 45°25' E 012°22'2 4.5
2019-Jun-15 16:01N 45°26' E 012°19'0 0.8
2019-Jun-15 15:29N 45°26' E 012°19'0 0.0
2019-Jun-15 15:00N 45°26' E 012°19'0 0.0
2019-Jun-15 14:29N 45°26' E 012°19'0 0.0
2019-Jun-15 13:59N 45°26' E 012°19'0 0.0
2019-Jun-15 13:30N 45°26' E 012°19'0 0.0
2019-Jun-15 13:00N 45°26' E 012°19'0 0.0
2019-Jun-15 12:29N 45°26' E 012°19'0 0.0
2019-Jun-15 11:59N 45°26' E 012°19'0 0.0
2019-Jun-15 11:29N 45°26' E 012°19'0 0.0
2019-Jun-15 10:59N 45°26' E 012°19'0 0.0
2019-Jun-15 10:29N 45°26' E 012°19'0 0.0
2019-Jun-15 09:58N 45°26' E 012°19'0 0.0
2019-Jun-15 09:30N 45°26' E 012°19'0 0.0
2019-Jun-15 08:58N 45°26' E 012°19'0 0.0
2019-Jun-15 08:28N 45°26' E 012°19'0 0.0
2019-Jun-15 08:00N 45°26' E 012°19'0 0.0
2019-Jun-15 07:30N 45°26' E 012°19'0 0.0
2019-Jun-15 06:59N 45°26' E 012°19'0 0.0
2019-Jun-15 06:28N 45°26' E 012°19'0 0.0
2019-Jun-15 05:58N 45°26' E 012°19'0 0.0
2019-Jun-15 05:29N 45°26' E 012°19'0 0.0
2019-Jun-15 05:00N 45°26' E 012°19'0 0.0
2019-Jun-15 04:28N 45°26' E 012°19'0 0.0
2019-Jun-15 03:59N 45°26' E 012°19'0 0.0
2019-Jun-15 03:28N 45°26' E 012°19'0 0.1
2019-Jun-15 03:01N 45°26' E 012°19'1 2.7
2019-Jun-15 02:31N 45°26' E 012°20'2 4.1
2019-Jun-15 02:00N 45°26' E 012°23'4 8.1
2019-Jun-15 01:31N 45°24' E 012°28'713.8
2019-Jun-15 01:00N 45°20' E 012°37'815.6
2019-Jun-15 00:31N 45°16' E 012°46'815.8
2019-Jun-15 00:00N 45°11' E 012°55'816.0
2019-Jun-14 23:31N 45°06' E 013°04'816.1
2019-Jun-14 23:01N 45°01' E 013°13'816.0
2019-Jun-14 22:31N 44°56' E 013°21'816.1
2019-Jun-14 22:01N 44°49' E 013°27'816.3
2019-Jun-14 21:31N 44°43' E 013°34'816.4
2019-Jun-14 21:01N 44°36' E 013°40'816.0
2019-Jun-14 20:31N 44°29' E 013°47'815.3
2019-Jun-14 20:00N 44°23' E 013°52'815.3
2019-Jun-14 19:31N 44°17' E 013°58'815.9
2019-Jun-14 19:00N 44°10' E 014°05'815.6
2019-Jun-14 18:30N 44°04' E 014°11'815.8
2019-Jun-14 18:00N 43°58' E 014°18'816.8
2019-Jun-14 17:30N 43°51' E 014°26'4616.6
2019-Jun-14 14:43N 43°15' E 015°06'26817.1
2019-Jun-13 23:00N 39°48' E 018°54'24310.6 340 / 161018.9 2.2 23.0 22.0
2019-Jun-13 00:00N 36°30' E 021°54'8416.2 350 / 161016.9 5.4 23.0 22.0
2019-Jun-12 18:49N 36°31' E 023°38'2016.2
2019-Jun-12 17:34N 36°43' E 023°59'116.5
2019-Jun-12 17:31N 36°43' E 023°60'1816.4
2019-Jun-12 16:24N 36°55' E 024°18'916.7
2019-Jun-12 15:53N 36°60' E 024°26'2216.7
2019-Jun-12 14:33N 37°12' E 024°49'116.8
2019-Jun-12 14:30N 37°13' E 024°50'816.9
2019-Jun-12 14:00N 37°17' E 024°59'816.7
2019-Jun-12 13:30N 37°23' E 025°07'816.0
2019-Jun-12 13:00N 37°28' E 025°15'3 5.8
2019-Jun-12 12:26N 37°27' E 025°19'0 0.0
2019-Jun-12 11:59N 37°27' E 025°19'0 0.0
2019-Jun-12 11:29N 37°27' E 025°19'0 0.0
2019-Jun-12 10:59N 37°27' E 025°19'0 0.0
2019-Jun-12 10:29N 37°27' E 025°19'0 0.0
2019-Jun-12 09:56N 37°27' E 025°19'0 0.0
2019-Jun-12 09:29N 37°27' E 025°19'0 0.0
2019-Jun-12 08:59N 37°27' E 025°19'0 0.0
2019-Jun-12 08:29N 37°27' E 025°19'0 0.0
2019-Jun-12 07:59N 37°27' E 025°19'0 0.0
2019-Jun-12 07:29N 37°27' E 025°19'0 0.0
2019-Jun-12 06:59N 37°27' E 025°19'0 0.0
2019-Jun-12 06:29N 37°27' E 025°19'0 0.0
2019-Jun-12 05:56N 37°27' E 025°19'0 0.1
2019-Jun-12 05:29N 37°27' E 025°19'0 0.1
2019-Jun-12 04:59N 37°27' E 025°19'0 0.1
2019-Jun-12 04:26N 37°27' E 025°19'0 0.1
2019-Jun-12 03:59N 37°27' E 025°19'1 1.6
2019-Jun-12 03:30N 37°27' E 025°18'4 8.9
2019-Jun-12 03:00N 37°29' E 025°13'5 9.0
2019-Jun-12 02:30N 37°30' E 025°07'9 9.4
2019-Jun-12 01:30N 37°32' E 024°56'5 9.6
2019-Jun-12 01:00N 37°33' E 024°50'1111.3
2019-Jun-12 00:00N 37°30' E 024°36'38 9.5 330 / 41014.9 5.4 22.0 21.0
2019-Jun-11 19:59N 37°37' E 023°49'510.2
2019-Jun-11 19:30N 37°39' E 023°43'510.4
2019-Jun-11 19:00N 37°44' E 023°40'510.2
2019-Jun-11 18:30N 37°48' E 023°37'5 9.8
2019-Jun-11 18:00N 37°53' E 023°36'4 7.3
2019-Jun-11 17:30N 37°56' E 023°38'0 0.2
2019-Jun-11 16:53N 37°56' E 023°38'0 0.0
2019-Jun-11 16:29N 37°56' E 023°38'0 0.0
2019-Jun-11 15:59N 37°56' E 023°38'0 0.0
2019-Jun-11 15:29N 37°56' E 023°38'0 0.0
2019-Jun-11 14:59N 37°56' E 023°38'0 0.0
2019-Jun-11 14:29N 37°56' E 023°38'0 0.0
2019-Jun-11 13:59N 37°56' E 023°38'0 0.0
2019-Jun-11 13:29N 37°56' E 023°38'0 0.0
2019-Jun-11 12:59N 37°56' E 023°38'0 0.0
2019-Jun-11 12:29N 37°56' E 023°38'0 0.0
2019-Jun-11 11:59N 37°56' E 023°38'0 0.0
2019-Jun-11 11:29N 37°56' E 023°38'0 0.0
2019-Jun-11 10:59N 37°56' E 023°38'0 0.1
2019-Jun-11 08:41N 37°57' E 023°38'1 5.3
2019-Jun-11 08:29N 37°56' E 023°37'4 8.2
2019-Jun-11 07:59N 37°52' E 023°38'1122.5
2019-Jun-11 07:30N 37°43' E 023°44'1122.1
2019-Jun-11 07:00N 37°32' E 023°45'1121.6
2019-Jun-11 06:30N 37°21' E 023°44'11016.9
2019-Jun-11 00:00N 36°30' E 021°42'5317.6 280 / 61013.9 5.4 23.0 22.0
2019-Jun-10 21:00N 37°06' E 020°54'195 9.8 270 / 51013.8 23.6
2019-Jun-10 01:00N 40°06' E 019°18'36015.1 350 / 161016.9 5.4 22.0 21.0
2019-Jun-09 01:12N 44°27' E 013°43'315.4
2019-Jun-09 01:00N 44°30' E 013°41'715.3
2019-Jun-09 00:30N 44°36' E 013°35'815.4
2019-Jun-09 00:00N 44°42' E 013°28'3184.9
2019-Jun-09 00:00N 44°42' E 013°24'713.7 090 / 121024.9 5.4 22.0 21.0
2019-Jun-08 23:30N 44°49' E 013°23'815.2
2019-Jun-08 23:00N 44°55' E 013°17'815.0
2019-Jun-08 22:30N 45°00' E 013°10'815.1
2019-Jun-08 22:00N 45°05' E 013°02'815.2
2019-Jun-08 21:30N 45°10' E 012°53'714.7
2019-Jun-08 21:00N 45°14' E 012°45'714.4
2019-Jun-08 20:30N 45°19' E 012°37'714.2
2019-Jun-08 20:01N 45°23' E 012°29'4 8.6
2019-Jun-08 19:30N 45°26' E 012°24'2 4.6
2019-Jun-08 19:01N 45°26' E 012°21'2 3.8
2019-Jun-08 18:30N 45°26' E 012°18'0 0.5
2019-Jun-08 17:59N 45°26' E 012°19'0 0.0
2019-Jun-08 17:29N 45°26' E 012°19'0 0.0
2019-Jun-08 16:59N 45°26' E 012°19'0 0.0
2019-Jun-08 16:29N 45°26' E 012°19'0 0.0
2019-Jun-08 15:59N 45°26' E 012°19'0 0.0
2019-Jun-08 15:29N 45°26' E 012°19'0 0.0
2019-Jun-08 14:56N 45°26' E 012°19'0 0.0
2019-Jun-08 14:29N 45°26' E 012°19'0 0.0
2019-Jun-08 13:59N 45°26' E 012°19'0 0.0
2019-Jun-08 13:29N 45°26' E 012°19'0 0.0
2019-Jun-08 12:59N 45°26' E 012°19'0 0.0
2019-Jun-08 12:29N 45°26' E 012°19'0 0.0
2019-Jun-08 11:59N 45°26' E 012°19'0 0.0
2019-Jun-08 11:29N 45°26' E 012°19'0 0.0
2019-Jun-08 10:59N 45°26' E 012°19'0 0.0
2019-Jun-08 10:26N 45°26' E 012°19'0 0.0
2019-Jun-08 09:59N 45°26' E 012°19'0 0.0
2019-Jun-08 09:29N 45°26' E 012°19'0 0.0
2019-Jun-08 08:59N 45°26' E 012°19'0 0.0
2019-Jun-08 08:29N 45°26' E 012°19'0 0.0
2019-Jun-08 07:59N 45°26' E 012°19'0 0.0
2019-Jun-08 07:29N 45°26' E 012°19'0 0.0
2019-Jun-08 06:59N 45°26' E 012°19'0 0.0
2019-Jun-08 06:29N 45°26' E 012°19'0 0.0
2019-Jun-08 05:59N 45°26' E 012°19'0 0.0
2019-Jun-08 05:29N 45°26' E 012°19'0 0.2
2019-Jun-08 04:59N 45°26' E 012°19'1 3.1
2019-Jun-08 04:31N 45°26' E 012°21'2 3.9
2019-Jun-08 04:00N 45°26' E 012°23'4 7.9
2019-Jun-08 03:30N 45°24' E 012°28'612.1
2019-Jun-08 03:01N 45°21' E 012°35'612.6
2019-Jun-08 02:30N 45°17' E 012°43'713.1
2019-Jun-08 02:00N 45°14' E 012°50'713.2
2019-Jun-08 01:30N 45°10' E 012°58'713.4
2019-Jun-08 01:01N 45°06' E 013°06'0 5.6
2019-Jun-08 01:00N 45°06' E 013°06'713.7 170 / 161021.9 5.4 20.0 21.0
2019-Jun-08 00:30N 45°01' E 013°13'713.4
2019-Jun-07 23:59N 44°57' E 013°20'613.4
2019-Jun-07 23:30N 44°52' E 013°26'713.7
2019-Jun-07 23:00N 44°46' E 013°31'713.7
2019-Jun-07 22:31N 44°40' E 013°36'713.6
2019-Jun-07 22:00N 44°35' E 013°42'713.6
2019-Jun-07 21:30N 44°29' E 013°47'713.8
2019-Jun-07 21:00N 44°23' E 013°52'713.8
2019-Jun-07 20:30N 44°18' E 013°58'713.8
2019-Jun-07 20:00N 44°12' E 014°03'713.8
2019-Jun-07 19:30N 44°06' E 014°09'713.7
2019-Jun-07 19:00N 44°01' E 014°15'713.6
2019-Jun-07 18:30N 43°55' E 014°21'713.8
2019-Jun-07 17:58N 43°50' E 014°27'28616.8
2019-Jun-07 01:00N 40°12' E 018°36'26311.0 170 / 181021.9 5.4 20.0 21.0
2019-Jun-06 01:00N 36°36' E 021°48'   320 / 91018.9 5.4 19.0 21.0

Dump ship's entire track history